Portada
METAR-TAF:

METAR-TAF

Aeropuertos :

Najran, Arabia Saudita

latitud: 17-37N, longitud: 044-25E, altitud: 1212 m

Observación

El informe se hizo hace 21 minutos, a las 02:00 UTC
Viento calma
Temperatura 18°C
Humedad 32%
Presión 1023 hPa
Visibilidad: 1500 m
Cielo despejado
Polvo extendido

METAR: OENG 270200Z 00000KT 1500 DU SKC 18/01 Q1023 TEMPO 1300

Hora: 05:21 (02:21 UTC)

Pronóstico

El informe se hizo hace 3 horas y 21 minutos, a las 23:00 UTC
Pronóstico válido del 27 a las 00 UTC al 28 a las 06 UTC
Viento 6 kt del oeste
Visibilidad: 4000 m
Escasas nubes a una altura de 3000 ft
Polvo extendido
Temporalmente
del 27 a las 00 UTC al 27 a las 12 UTC
Visibilidad: 1500 m
Evolucionando progresivamente
del 27 a las 06 UTC al 27 a las 08 UTC
Viento 12 kt del este-sureste

TAF: OENG 262300Z 2700/2806 26006KT 4000 DU FEW030 TEMPO 2700/2712 1500 BECMG 2706/2708 12012KT

Observaciones y pronósticos meteorológicos de más de 4000 aeropuertos (mensajes METAR y TAF).

Los puntos amarillos y rojos representan las estaciones disponibles.

Ponga el ratón en el punto deseado para ver el nombre de la estación.

Haga clic para ver las observaciones y los pronósticos meteorológicos.

Para cambiar el mapa : haga clic en los botones verdes con una cruz de color negro para hacer un zoom, en el botón verde con un guión para alejar o en las flechas verdes para mapas adyacentes.


METAR-TAF: